Steamboat Springs, CO

11:21 PM MDT on August 26, 2016 (GMT -0600)
Steamboat Springs-Adams

Weather History for KSBS - June, 2013

Change the Weather History Date:

Tuesday, June 18, 2013

  Actual Average Record
Temperature  
Mean Temperature 63 °F -  
Max Temperature 84 °F 74 °F 92 °F (1940)
Min Temperature 42 °F 35 °F 25 °F (1912)
Degree Days  
Heating Degree Days 2    
Growing Degree Days 13 (Base 50)    
Moisture  
Dew Point 26 °F    
Average Humidity 33    
Maximum Humidity 66    
Minimum Humidity 6    
Precipitation  
Precipitation 0.00 in - - ()
Sea Level Pressure  
Sea Level Pressure 30.10 in    
Wind  
Wind Speed 1 mph (ESE)    
Max Wind Speed 17 mph    
Max Gust Speed 26 mph    
Visibility 10 miles    
Events      
Averages and records for this station are not official NWS values.
T = Trace of Precipitation, MM = Missing Value Source: NWS Daily Summary

Daily Weather History Graph

Daily Weather History Graph

Search for Another Location

Airport or City:

Trip Planner

Search our weather history database for the weather conditions in past years. The results will help you decide how hot, cold, wet, or windy it might be!

Date:

Astronomy

Jun. 18, 2013 Rise Set
Actual Time 5:36 AM MDT 8:40 PM MDT
Civil Twilight 5:03 AM MDT 9:14 PM MDT
Nautical Twilight 4:20 AM MDT 9:56 PM MDT
Astronomical Twilight 3:31 AM MDT 10:46 PM MDT
Moon 3:27 PM MDT (6/18) 1:47 AM MDT (6/18)
Length of Visible Light 16h 10m
Length of Day
15h 04m
Waxing Gibbous, 71% of the Moon is Illuminated
Jun 18
Waxing Gibbous
Jun 23
Full
Jun 29
Last Quarter
Jul 8
New
Jul 15
First Quarter

Hourly Weather History & Observations

Time (MDT) Temp. Dew Point Humidity Pressure Visibility Wind Dir Wind Speed Gust Speed Precip Events Conditions
12:15 AM 50.5 °F 32.0 °F 49% 30.18 in 10.0 mi Calm Calm - N/A   Clear
12:35 AM 50.4 °F 31.8 °F 49% 30.18 in 10.0 mi Calm Calm - N/A   Clear
12:55 AM 50.0 °F 30.9 °F 48% 30.18 in 10.0 mi Calm Calm - N/A   Clear
1:15 AM 49.6 °F 29.3 °F 46% 30.18 in 10.0 mi Calm Calm - N/A   Clear
1:35 AM 46.0 °F 32.0 °F 58% 30.18 in 10.0 mi Calm Calm - N/A   Clear
1:55 AM 47.3 °F 31.5 °F 54% 30.18 in 10.0 mi Calm Calm - N/A   Clear
2:15 AM 46.4 °F 31.3 °F 56% 30.18 in 10.0 mi Calm Calm - N/A   Clear
2:35 AM 46.2 °F 31.8 °F 57% 30.17 in 10.0 mi Calm Calm - N/A   Clear
2:55 AM 44.4 °F 32.0 °F 62% 30.17 in 10.0 mi Calm Calm - N/A   Clear
3:15 AM 44.8 °F 31.6 °F 60% 30.18 in 10.0 mi Calm Calm - N/A   Clear
3:35 AM 44.1 °F 30.9 °F 60% 30.17 in 10.0 mi Calm Calm - N/A   Clear
3:55 AM 46.0 °F 30.0 °F 54% 30.17 in 10.0 mi Calm Calm - N/A   Clear
4:15 AM 42.8 °F 31.6 °F 65% 30.17 in 10.0 mi Calm Calm - N/A   Clear
4:35 AM 42.8 °F 32.0 °F 66% 30.17 in 10.0 mi Calm Calm - N/A   Clear
4:55 AM 43.7 °F 30.6 °F 60% 30.16 in 10.0 mi Calm Calm - N/A   Clear
5:15 AM 43.5 °F 30.6 °F 60% 30.18 in 10.0 mi Calm Calm - N/A   Clear
5:35 AM 42.8 °F 30.9 °F 63% 30.18 in 10.0 mi Calm Calm - N/A   Clear
5:55 AM 42.8 °F 30.9 °F 63% 30.18 in 10.0 mi Calm Calm - N/A   Clear
6:15 AM 42.3 °F 31.1 °F 65% 30.18 in 10.0 mi Calm Calm - N/A   Clear
6:35 AM 43.7 °F 31.3 °F 62% 30.18 in 10.0 mi Calm Calm - N/A   Clear
6:55 AM 46.4 °F 31.6 °F 56% 30.18 in 10.0 mi Calm Calm - N/A   Clear
7:15 AM 46.6 °F 32.9 °F 59% 30.18 in 10.0 mi Calm Calm - N/A   Clear
7:35 AM 51.1 °F 32.4 °F 49% 30.18 in 10.0 mi ENE 3.5 mph - N/A   Clear
7:55 AM 53.6 °F 30.9 °F 42% 30.18 in 10.0 mi Calm Calm - N/A   Clear
8:15 AM 54.7 °F 35.4 °F 48% 30.18 in 10.0 mi Calm Calm - N/A   Clear
8:35 AM 57.2 °F 34.0 °F 42% 30.17 in 10.0 mi Calm Calm - N/A   Clear
8:55 AM 59.9 °F 34.9 °F 39% 30.17 in 10.0 mi Calm Calm - N/A   Clear
9:15 AM 62.1 °F 34.0 °F 35% 30.16 in 10.0 mi Calm Calm - N/A   Clear
9:35 AM 65.1 °F 31.6 °F 29% 30.16 in 10.0 mi Calm Calm - N/A   Clear
9:55 AM 67.5 °F 31.8 °F 27% 30.15 in 10.0 mi Calm Calm - N/A   Clear
10:15 AM 69.6 °F 34.7 °F 28% 30.14 in 10.0 mi WSW 3.5 mph - N/A   Clear
10:35 AM 70.9 °F 36.7 °F 29% 30.14 in 10.0 mi Calm Calm - N/A   Clear
10:55 AM 74.3 °F 33.8 °F 23% 30.13 in 10.0 mi North 3.5 mph - N/A   Clear
11:15 AM 75.9 °F 32.4 °F 20% 30.12 in 10.0 mi Calm Calm - N/A   Clear
11:35 AM 76.5 °F 30.2 °F 18% 30.11 in 10.0 mi Calm Calm - N/A   Clear
11:55 AM 78.6 °F 14.4 °F 9% 30.11 in 10.0 mi Calm Calm - N/A   Clear
12:15 PM 77.2 °F 21.9 °F 13% 30.10 in 10.0 mi Calm Calm - N/A   Clear
12:35 PM 78.4 °F 16.9 °F 10% 30.12 in 10.0 mi SE 9.2 mph - N/A   Clear
12:55 PM 72.9 °F 19.0 °F 13% 30.11 in 10.0 mi SSE 17.3 mph 26.5 mph N/A   Scattered Clouds
1:15 PM 73.6 °F 19.0 °F 13% 30.11 in 10.0 mi SE 5.8 mph - N/A   Clear
1:35 PM 75.2 °F 11.7 °F 9% 30.11 in 10.0 mi SE 9.2 mph 20.7 mph N/A   Scattered Clouds
1:55 PM 76.6 °F 11.7 °F 8% 30.09 in 10.0 mi Calm Calm - N/A   Scattered Clouds
2:15 PM 80.8 °F 10.8 °F 7% 30.08 in 10.0 mi ENE 6.9 mph - N/A   Clear
2:35 PM 81.1 °F 7.0 °F 6% 30.07 in 10.0 mi North 3.5 mph - N/A   Clear
2:55 PM 81.3 °F 7.0 °F 6% 30.05 in 10.0 mi Calm Calm - N/A   Clear
3:15 PM 81.9 °F 7.2 °F 6% 30.04 in 10.0 mi SW 4.6 mph - N/A   Clear
3:35 PM 82.4 °F 9.5 °F 6% 30.04 in 10.0 mi SW 3.5 mph - N/A   Clear
3:55 PM 82.9 °F 7.2 °F 6% 30.04 in 10.0 mi SSW 4.6 mph - N/A   Clear
4:15 PM 84.2 °F 9.1 °F 6% 30.03 in 10.0 mi North 3.5 mph 9.2 mph N/A   Scattered Clouds
4:35 PM 81.5 °F 8.1 °F 6% 30.02 in 10.0 mi South 3.5 mph - N/A   Clear
4:55 PM 80.4 °F 11.8 °F 7% 30.02 in 10.0 mi SW 4.6 mph - N/A   Clear
5:15 PM 79.9 °F 11.8 °F 8% 30.02 in 10.0 mi SSW 11.5 mph 17.3 mph N/A   Scattered Clouds
5:35 PM 76.6 °F 16.2 °F 10% 30.02 in 10.0 mi ESE 4.6 mph - N/A   Scattered Clouds
5:55 PM 75.2 °F 19.8 °F 12% 30.01 in 10.0 mi SW 5.8 mph 17.3 mph N/A   Mostly Cloudy
6:15 PM 76.6 °F 14.5 °F 10% 30.01 in 10.0 mi Calm Calm - N/A   Clear
6:35 PM 75.0 °F 27.0 °F 17% 30.00 in 10.0 mi Calm Calm - N/A   Clear
6:55 PM 77.7 °F 14.9 °F 9% 29.99 in 10.0 mi NE 3.5 mph - N/A   Clear
7:15 PM 74.1 °F 22.5 °F 14% 29.98 in 10.0 mi NE 4.6 mph - N/A   Clear
7:35 PM 74.1 °F 27.0 °F 17% 29.98 in 10.0 mi Calm Calm - N/A   Clear
7:55 PM 73.9 °F 27.1 °F 18% 29.98 in 10.0 mi Calm Calm - N/A   Clear
8:15 PM 70.5 °F 33.1 °F 25% 29.98 in 10.0 mi Calm Calm - N/A   Clear
8:35 PM 70.0 °F 29.3 °F 22% 29.98 in 10.0 mi East 3.5 mph - N/A   Clear
8:55 PM 64.9 °F 28.4 °F 25% 29.98 in 10.0 mi Calm Calm - N/A   Clear
9:15 PM 62.1 °F 32.7 °F 33% 29.98 in 10.0 mi ESE 3.5 mph - N/A   Clear
9:35 PM 59.4 °F 32.9 °F 37% 29.99 in 10.0 mi SW 3.5 mph - N/A   Clear
9:55 PM 58.3 °F 32.9 °F 38% 29.99 in 10.0 mi Calm Calm - N/A   Clear
10:15 PM 58.5 °F 32.2 °F 37% 29.99 in 10.0 mi Calm Calm - N/A   Clear
10:35 PM 59.5 °F 29.5 °F 32% 29.99 in 10.0 mi ENE 6.9 mph - N/A   Clear
10:55 PM 59.0 °F 28.2 °F 31% 29.99 in 10.0 mi Calm Calm - N/A   Clear
11:15 PM 55.9 °F 31.1 °F 39% 30.00 in 10.0 mi NNE 4.6 mph - N/A   Clear
11:35 PM 52.7 °F 32.5 °F 46% 30.01 in 10.0 mi ENE 5.8 mph - N/A   Clear
11:55 PM 54.7 °F 30.2 °F 39% 30.01 in 10.0 mi East 8.1 mph - N/A   Clear